Time;durP1;ratioP1;P1;durP2;ratioP2;P2;SDS_P1;SDS_P2;PMS_P1;PMS_P2;Temp;Humidity;BMP_temperature;BMP_pressure;BME280_temperature;BME280_humidity;BME280_pressure;Samples;Min_cycle;Max_cycle;Signal;HPM_P1;HPM_P2
2022/12/03 00:00:36;;;;;;;34.85;22.58;;;;;;;;;;5050200;28;20429;-80
2022/12/03 00:03:03;;;;;;;34.42;20.88;;;;;;;;;;5046569;28;20429;-80
2022/12/03 00:05:29;;;;;;;34.88;20.52;;;;;;;;;;5048485;28;20411;-81
2022/12/03 00:07:55;;;;;;;36.03;20.93;;;;;;;;;;5047461;28;20436;-80
2022/12/03 00:10:23;;;;;;;32.85;19.75;;;;;;;;;;5049312;28;20417;-80
2022/12/03 00:12:50;;;;;;;32.38;20.30;;;;;;;;;;5050665;28;20440;-79
2022/12/03 00:15:17;;;;;;;31.90;19.85;;;;;;;;;;5048589;28;20801;-80
2022/12/03 00:17:43;;;;;;;29.97;18.90;;;;;;;;;;5050410;28;20429;-81
2022/12/03 00:20:11;;;;;;;32.45;19.63;;;;;;;;;;5046190;28;20432;-79
2022/12/03 00:22:37;;;;;;;30.30;19.00;;;;;;;;;;5047373;28;20439;-81
2022/12/03 00:25:04;;;;;;;33.47;20.08;;;;;;;;;;5047783;28;20421;-81
2022/12/03 00:27:32;;;;;;;30.65;19.13;;;;;;;;;;5049461;28;20432;-81
2022/12/03 00:29:59;;;;;;;29.08;18.75;;;;;;;;;;5048437;28;20440;-81
2022/12/03 00:32:25;;;;;;;38.20;21.80;;;;;;;;;;5043999;28;20455;-82
2022/12/03 00:34:52;;;;;;;34.38;20.40;;;;;;;;;;5047688;28;20409;-81
2022/12/03 00:37:18;;;;;;;32.38;19.55;;;;;;;;;;5046408;28;20425;-81
2022/12/03 00:39:45;;;;;;;29.35;18.42;;;;;;;;;;5045854;28;20433;-81
2022/12/03 00:42:11;;;;;;;31.67;19.35;;;;;;;;;;5042331;28;20419;-82
2022/12/03 00:44:39;;;;;;;28.45;18.60;;;;;;;;;;5045062;28;20413;-81
2022/12/03 00:47:05;;;;;;;28.92;19.23;;;;;;;;;;5045297;28;20430;-80
2022/12/03 00:49:32;;;;;;;30.67;19.50;;;;;;;;;;5046359;28;20828;-82
2022/12/03 00:51:58;;;;;;;30.42;18.80;;;;;;;;;;5049517;28;20418;-80
2022/12/03 00:54:24;;;;;;;32.35;19.40;;;;;;;;;;5048875;28;20413;-80
2022/12/03 00:56:51;;;;;;;30.48;18.80;;;;;;;;;;5048893;28;20440;-81
2022/12/03 00:59:18;;;;;;;30.45;17.83;;;;;;;;;;5046246;28;20420;-80
2022/12/03 01:01:47;;;;;;;30.90;19.10;;;;;;;;;;5044096;28;20419;-79
2022/12/03 01:04:14;;;;;;;29.83;19.17;;;;;;;;;;5047598;28;20429;-80
2022/12/03 01:06:41;;;;;;;31.60;19.57;;;;;;;;;;5046741;28;20905;-79
2022/12/03 01:09:07;;;;;;;30.13;19.95;;;;;;;;;;5048067;28;20456;-80
2022/12/03 01:11:40;;;;;;;31.92;20.23;;;;;;;;;;5044756;28;20433;-80
2022/12/03 01:14:07;;;;;;;32.90;19.75;;;;;;;;;;5043902;28;20518;-82
2022/12/03 01:16:34;;;;;;;31.52;18.38;;;;;;;;;;5045995;28;20415;-81
2022/12/03 01:19:02;;;;;;;30.35;18.10;;;;;;;;;;5044806;28;20441;-79
2022/12/03 01:21:28;;;;;;;32.05;19.23;;;;;;;;;;5043179;28;20848;-79
2022/12/03 01:23:55;;;;;;;31.60;19.85;;;;;;;;;;5047399;28;20436;-81
2022/12/03 01:26:21;;;;;;;30.48;19.80;;;;;;;;;;5046290;28;20422;-79
2022/12/03 01:28:47;;;;;;;31.30;19.75;;;;;;;;;;5048755;28;20440;-81
2022/12/03 01:33:58;;;;;;;31.48;19.52;;;;;;;;;;5051686;28;20443;-81
2022/12/03 01:36:26;;;;;;;30.23;19.05;;;;;;;;;;5051983;28;20941;-81
2022/12/03 01:38:52;;;;;;;29.30;18.88;;;;;;;;;;5052578;28;20415;-82
2022/12/03 01:41:20;;;;;;;33.03;19.38;;;;;;;;;;5048377;28;20431;-82
2022/12/03 01:43:46;;;;;;;31.65;19.05;;;;;;;;;;5053261;28;20449;-81
2022/12/03 01:46:14;;;;;;;31.42;19.45;;;;;;;;;;5048093;28;20426;-82
2022/12/03 01:48:40;;;;;;;31.70;19.70;;;;;;;;;;5049689;28;20432;-83
2022/12/03 01:51:08;;;;;;;32.33;19.53;;;;;;;;;;5050671;28;20422;-81
2022/12/03 01:53:35;;;;;;;28.50;19.13;;;;;;;;;;5051033;28;20440;-82
2022/12/03 01:56:02;;;;;;;30.85;19.92;;;;;;;;;;5053461;28;20421;-83
2022/12/03 01:58:29;;;;;;;34.80;20.92;;;;;;;;;;5052506;28;20432;-80
2022/12/03 02:00:56;;;;;;;37.00;20.85;;;;;;;;;;5044895;28;20436;-82
2022/12/03 02:03:24;;;;;;;34.63;20.33;;;;;;;;;;5046542;28;20440;-82
2022/12/03 02:05:51;;;;;;;32.03;20.67;;;;;;;;;;5048683;28;20959;-81
2022/12/03 02:08:30;;;;;;;34.45;20.75;;;;;;;;;;5050527;28;20427;-81
2022/12/03 02:11:00;;;;;;;33.53;19.90;;;;;;;;;;5050522;28;20425;-82
2022/12/03 02:13:27;;;;;;;33.55;21.05;;;;;;;;;;5047523;28;21328;-81
2022/12/03 02:15:53;;;;;;;33.40;20.80;;;;;;;;;;5043445;28;20425;-81
2022/12/03 02:18:21;;;;;;;37.03;21.75;;;;;;;;;;5048620;28;20431;-81
2022/12/03 02:20:53;;;;;;;35.08;21.50;;;;;;;;;;5051274;28;20433;-82
2022/12/03 02:23:25;;;;;;;35.10;20.50;;;;;;;;;;5050889;28;20433;-81
2022/12/03 02:25:53;;;;;;;33.92;20.10;;;;;;;;;;5048470;28;21001;-81
2022/12/03 02:28:19;;;;;;;38.90;22.52;;;;;;;;;;5047229;28;20435;-82
2022/12/03 02:30:47;;;;;;;33.95;21.17;;;;;;;;;;5048676;28;20904;-81
2022/12/03 02:33:14;;;;;;;36.15;22.55;;;;;;;;;;5050803;28;20425;-82
2022/12/03 02:35:40;;;;;;;33.53;20.63;;;;;;;;;;5050440;28;20422;-83
2022/12/03 02:38:11;;;;;;;32.85;20.85;;;;;;;;;;5049685;28;20421;-81
2022/12/03 02:40:38;;;;;;;37.17;20.92;;;;;;;;;;5049987;28;20432;-82
2022/12/03 02:43:04;;;;;;;35.60;21.23;;;;;;;;;;5046226;28;20815;-81
2022/12/03 02:45:33;;;;;;;39.10;21.88;;;;;;;;;;5050019;28;20419;-82
2022/12/03 02:48:02;;;;;;;37.92;21.60;;;;;;;;;;5049272;28;20432;-82
2022/12/03 02:50:32;;;;;;;35.75;21.17;;;;;;;;;;5050751;28;20782;-81
2022/12/03 02:52:59;;;;;;;37.47;21.45;;;;;;;;;;5046611;28;20778;-81
2022/12/03 02:55:26;;;;;;;33.33;20.65;;;;;;;;;;5046142;28;20815;-81
2022/12/03 02:57:52;;;;;;;33.13;20.77;;;;;;;;;;5048950;28;20414;-83
2022/12/03 03:00:21;;;;;;;36.37;21.50;;;;;;;;;;5048095;28;20440;-81
2022/12/03 03:02:49;;;;;;;35.88;21.00;;;;;;;;;;5044866;28;20434;-82
2022/12/03 03:05:17;;;;;;;39.50;22.20;;;;;;;;;;5050570;28;20846;-81
2022/12/03 03:07:44;;;;;;;36.85;21.10;;;;;;;;;;5049609;28;20433;-80
2022/12/03 03:10:12;;;;;;;38.25;22.27;;;;;;;;;;5050333;28;20428;-81
2022/12/03 03:12:39;;;;;;;36.53;21.05;;;;;;;;;;5048208;28;20440;-79
2022/12/03 03:15:06;;;;;;;36.95;22.42;;;;;;;;;;5043136;28;20427;-79
2022/12/03 03:17:34;;;;;;;35.63;20.80;;;;;;;;;;5046636;28;20433;-79
2022/12/03 03:20:01;;;;;;;36.92;20.65;;;;;;;;;;5049772;28;20425;-81
2022/12/03 03:22:31;;;;;;;36.58;20.83;;;;;;;;;;5046769;28;20431;-79
2022/12/03 03:24:57;;;;;;;38.03;21.67;;;;;;;;;;5051673;28;20418;-79
2022/12/03 03:27:24;;;;;;;38.90;22.08;;;;;;;;;;5048394;28;20429;-80
2022/12/03 03:29:51;;;;;;;37.20;21.48;;;;;;;;;;5049053;28;20428;-81
2022/12/03 03:32:18;;;;;;;38.92;22.05;;;;;;;;;;5051357;28;20436;-81
2022/12/03 03:34:46;;;;;;;40.53;21.40;;;;;;;;;;5048337;28;20421;-80
2022/12/03 03:37:12;;;;;;;37.45;21.55;;;;;;;;;;5047054;28;20433;-80
2022/12/03 03:39:39;;;;;;;37.60;22.48;;;;;;;;;;5047220;28;20415;-80
2022/12/03 03:42:05;;;;;;;36.65;21.10;;;;;;;;;;5050585;28;20949;-80
2022/12/03 03:44:32;;;;;;;35.50;21.88;;;;;;;;;;5051352;28;20417;-80
2022/12/03 03:46:59;;;;;;;39.30;22.25;;;;;;;;;;5051254;28;20417;-81
2022/12/03 03:49:26;;;;;;;37.58;22.80;;;;;;;;;;5045882;28;20411;-80
2022/12/03 03:51:53;;;;;;;37.05;22.67;;;;;;;;;;5049217;28;20937;-80
2022/12/03 03:54:20;;;;;;;38.78;21.65;;;;;;;;;;5038454;28;20424;-81
2022/12/03 03:56:47;;;;;;;41.83;21.70;;;;;;;;;;5043648;28;20444;-80
2022/12/03 03:59:13;;;;;;;39.13;22.55;;;;;;;;;;5048941;28;20419;-81
2022/12/03 04:01:40;;;;;;;36.58;22.10;;;;;;;;;;5049216;28;20457;-81
2022/12/03 04:04:07;;;;;;;39.03;22.88;;;;;;;;;;5047477;28;20849;-82
2022/12/03 04:06:34;;;;;;;41.40;22.70;;;;;;;;;;5045720;28;20447;-83
2022/12/03 04:09:01;;;;;;;42.78;23.05;;;;;;;;;;5046294;28;20437;-81
2022/12/03 04:14:11;;;;;;;39.78;23.63;;;;;;;;;;5045850;28;20427;-80
2022/12/03 04:16:38;;;;;;;35.00;21.00;;;;;;;;;;5041743;28;20435;-79
2022/12/03 04:19:05;;;;;;;40.92;23.10;;;;;;;;;;5048958;28;20423;-80
2022/12/03 04:24:17;;;;;;;40.70;23.50;;;;;;;;;;5043617;28;20421;-79
2022/12/03 04:29:27;;;;;;;38.38;22.45;;;;;;;;;;5045407;28;20413;-81
2022/12/03 04:37:21;;;;;;;39.88;22.88;;;;;;;;;;5048593;28;20440;-81
2022/12/03 04:39:49;;;;;;;41.30;23.50;;;;;;;;;;5046267;28;20417;-80
2022/12/03 04:42:15;;;;;;;41.03;22.65;;;;;;;;;;5046070;28;20789;-81
2022/12/03 04:44:41;;;;;;;43.83;22.93;;;;;;;;;;5047300;28;20429;-80
2022/12/03 04:47:10;;;;;;;41.60;22.98;;;;;;;;;;5047702;28;20434;-82
2022/12/03 04:49:37;;;;;;;40.40;23.58;;;;;;;;;;5045589;28;20920;-79
2022/12/03 04:52:04;;;;;;;43.27;23.40;;;;;;;;;;5045512;28;20429;-80
2022/12/03 04:54:30;;;;;;;42.70;23.25;;;;;;;;;;5042830;28;20407;-80
2022/12/03 04:56:58;;;;;;;43.83;24.17;;;;;;;;;;5049561;28;20438;-82
2022/12/03 04:59:25;;;;;;;41.93;24.03;;;;;;;;;;5049657;28;21408;-82
2022/12/03 05:01:51;;;;;;;44.85;24.35;;;;;;;;;;5046028;28;20800;-81
2022/12/03 05:04:17;;;;;;;45.83;24.02;;;;;;;;;;5047219;28;20447;-82
2022/12/03 05:06:44;;;;;;;45.83;25.15;;;;;;;;;;5047602;28;20438;-83
2022/12/03 05:09:11;;;;;;;42.17;24.48;;;;;;;;;;5048869;28;20435;-80
2022/12/03 05:11:37;;;;;;;43.70;23.83;;;;;;;;;;5050030;28;20429;-82
2022/12/03 05:14:05;;;;;;;48.78;24.77;;;;;;;;;;5048808;28;20432;-81
2022/12/03 05:16:31;;;;;;;45.35;23.88;;;;;;;;;;5051092;28;20452;-83
2022/12/03 05:18:58;;;;;;;45.75;23.88;;;;;;;;;;5051062;28;20421;-79
2022/12/03 05:21:24;;;;;;;50.00;26.08;;;;;;;;;;5051596;28;20440;-81
2022/12/03 05:23:50;;;;;;;44.40;24.13;;;;;;;;;;5050129;28;20930;-80
2022/12/03 05:26:17;;;;;;;44.13;24.58;;;;;;;;;;5049179;28;20448;-79
2022/12/03 05:28:44;;;;;;;50.20;27.30;;;;;;;;;;5048942;28;20495;-81
2022/12/03 05:31:12;;;;;;;47.10;24.90;;;;;;;;;;5051116;28;20421;-79
2022/12/03 05:33:39;;;;;;;48.65;24.90;;;;;;;;;;5049440;28;20429;-80
2022/12/03 05:36:06;;;;;;;44.25;24.55;;;;;;;;;;5046860;28;21022;-79
2022/12/03 05:38:32;;;;;;;47.90;26.50;;;;;;;;;;5050212;28;20421;-80
2022/12/03 05:40:58;;;;;;;49.53;26.38;;;;;;;;;;5051692;28;20426;-80
2022/12/03 05:43:24;;;;;;;51.42;25.70;;;;;;;;;;5050455;28;20432;-80
2022/12/03 05:45:51;;;;;;;47.00;26.13;;;;;;;;;;5047288;28;20434;-80
2022/12/03 05:48:19;;;;;;;44.65;26.95;;;;;;;;;;5048677;28;20428;-81
2022/12/03 05:50:46;;;;;;;47.97;26.52;;;;;;;;;;5044614;28;20924;-81
2022/12/03 05:53:12;;;;;;;50.43;26.40;;;;;;;;;;5049914;28;20419;-79
2022/12/03 05:55:40;;;;;;;49.60;26.13;;;;;;;;;;5049447;28;20423;-79
2022/12/03 05:58:06;;;;;;;52.45;27.45;;;;;;;;;;5053246;28;20411;-81
2022/12/03 06:00:36;;;;;;;46.13;26.90;;;;;;;;;;5049747;28;20429;-80
2022/12/03 06:03:03;;;;;;;48.85;27.00;;;;;;;;;;5051957;28;20918;-81
2022/12/03 06:05:30;;;;;;;48.75;27.40;;;;;;;;;;5049185;28;20779;-80
2022/12/03 06:07:57;;;;;;;49.65;27.75;;;;;;;;;;5049996;28;20434;-80
2022/12/03 06:10:24;;;;;;;54.53;28.00;;;;;;;;;;5051692;28;20425;-81
2022/12/03 06:12:51;;;;;;;54.30;29.15;;;;;;;;;;5049261;28;20429;-83
2022/12/03 06:15:17;;;;;;;51.85;28.60;;;;;;;;;;5050157;28;20433;-81
2022/12/03 06:17:44;;;;;;;54.83;28.57;;;;;;;;;;5052615;28;20427;-81
2022/12/03 06:20:13;;;;;;;54.38;28.90;;;;;;;;;;5049742;28;20422;-82
2022/12/03 06:22:41;;;;;;;55.17;28.52;;;;;;;;;;5050788;28;20429;-81
2022/12/03 06:25:08;;;;;;;51.45;28.65;;;;;;;;;;5043815;28;20423;-80
2022/12/03 06:27:35;;;;;;;54.65;27.73;;;;;;;;;;5046534;28;20502;-81
2022/12/03 06:30:02;;;;;;;54.97;29.42;;;;;;;;;;5050206;28;20419;-80
2022/12/03 06:32:28;;;;;;;51.70;28.23;;;;;;;;;;5048010;28;20440;-81
2022/12/03 06:34:55;;;;;;;53.70;28.92;;;;;;;;;;5045418;28;20425;-80
2022/12/03 06:37:21;;;;;;;55.13;29.17;;;;;;;;;;5046803;28;20431;-80
2022/12/03 06:39:49;;;;;;;55.47;29.13;;;;;;;;;;5044177;28;20428;-80
2022/12/03 06:42:15;;;;;;;54.80;30.05;;;;;;;;;;5050958;28;20429;-81
2022/12/03 06:44:42;;;;;;;55.50;28.50;;;;;;;;;;5048077;28;20419;-80
2022/12/03 06:47:08;;;;;;;50.83;28.17;;;;;;;;;;5048835;28;20437;-81
2022/12/03 06:49:35;;;;;;;55.85;28.27;;;;;;;;;;5048203;28;20410;-80
2022/12/03 06:52:01;;;;;;;53.45;28.90;;;;;;;;;;5051126;28;20450;-81
2022/12/03 06:54:28;;;;;;;51.65;28.88;;;;;;;;;;5051058;28;20405;-79
2022/12/03 06:56:55;;;;;;;53.80;29.48;;;;;;;;;;5050269;28;20439;-80
2022/12/03 06:59:22;;;;;;;59.67;30.77;;;;;;;;;;5047471;28;20423;-79
2022/12/03 07:01:48;;;;;;;53.28;29.30;;;;;;;;;;5049637;28;20433;-80
2022/12/03 07:04:15;;;;;;;55.60;29.70;;;;;;;;;;5051104;28;20431;-81
2022/12/03 07:06:41;;;;;;;55.40;30.15;;;;;;;;;;5048589;28;20444;-82
2022/12/03 07:09:07;;;;;;;53.38;29.48;;;;;;;;;;5050419;28;20429;-80
2022/12/03 07:11:40;;;;;;;54.45;29.50;;;;;;;;;;5045792;28;20427;-81
2022/12/03 07:14:10;;;;;;;59.22;31.58;;;;;;;;;;5048951;28;20425;-78
2022/12/03 07:16:37;;;;;;;54.92;29.30;;;;;;;;;;5050067;28;20433;-83
2022/12/03 07:19:03;;;;;;;54.40;29.10;;;;;;;;;;5049388;28;20425;-81
2022/12/03 07:21:30;;;;;;;56.47;29.83;;;;;;;;;;5042918;28;20939;-81
2022/12/03 07:23:56;;;;;;;54.28;30.20;;;;;;;;;;5045472;28;20426;-81
2022/12/03 07:26:24;;;;;;;58.60;31.10;;;;;;;;;;5046373;28;20429;-81
2022/12/03 07:28:50;;;;;;;58.35;30.65;;;;;;;;;;5047532;28;20435;-81
2022/12/03 07:31:20;;;;;;;56.43;30.70;;;;;;;;;;5047828;28;20945;-82
2022/12/03 07:33:47;;;;;;;55.75;30.95;;;;;;;;;;5049325;28;20785;-80
2022/12/03 07:36:14;;;;;;;53.28;29.40;;;;;;;;;;5045489;28;20807;-80
2022/12/03 07:38:40;;;;;;;59.40;31.27;;;;;;;;;;5046326;28;20432;-80
2022/12/03 07:41:07;;;;;;;56.40;30.00;;;;;;;;;;5048462;28;21370;-81
2022/12/03 07:43:33;;;;;;;53.40;30.40;;;;;;;;;;5047316;28;20427;-79
2022/12/03 07:46:00;;;;;;;55.60;31.20;;;;;;;;;;5045615;28;20511;-82
2022/12/03 07:48:28;;;;;;;57.40;31.00;;;;;;;;;;5047999;28;20434;-80
2022/12/03 07:50:54;;;;;;;56.65;31.38;;;;;;;;;;5040197;28;20935;-80
2022/12/03 07:53:21;;;;;;;56.17;31.15;;;;;;;;;;5042197;28;20417;-80
2022/12/03 07:55:47;;;;;;;56.28;30.35;;;;;;;;;;5045375;28;20486;-80
2022/12/03 07:58:13;;;;;;;57.88;30.10;;;;;;;;;;5042657;28;20496;-81
2022/12/03 08:00:40;;;;;;;53.42;31.25;;;;;;;;;;5047470;28;20427;-81
2022/12/03 08:03:06;;;;;;;58.95;31.58;;;;;;;;;;5048689;28;20409;-80
2022/12/03 08:05:35;;;;;;;60.00;31.73;;;;;;;;;;5044650;28;20417;-80
2022/12/03 08:08:02;;;;;;;60.25;31.30;;;;;;;;;;5044121;28;20966;-79
2022/12/03 08:10:28;;;;;;;60.63;32.75;;;;;;;;;;5051493;28;20429;-80
2022/12/03 08:12:56;;;;;;;58.08;31.70;;;;;;;;;;5043826;28;20413;-79
2022/12/03 08:15:24;;;;;;;55.50;31.23;;;;;;;;;;5044492;28;20429;-80
2022/12/03 08:17:53;;;;;;;55.67;30.70;;;;;;;;;;5045444;28;20497;-82
2022/12/03 08:20:20;;;;;;;58.95;32.10;;;;;;;;;;5045042;28;20409;-81
2022/12/03 08:22:49;;;;;;;59.55;30.90;;;;;;;;;;5048475;28;20413;-79
2022/12/03 08:25:19;;;;;;;58.17;31.23;;;;;;;;;;5048769;28;20416;-82
2022/12/03 08:27:47;;;;;;;54.22;30.10;;;;;;;;;;5045752;28;20795;-83
2022/12/03 08:30:15;;;;;;;55.33;30.40;;;;;;;;;;5046184;28;20417;-82
2022/12/03 08:32:42;;;;;;;55.97;30.65;;;;;;;;;;5048784;28;20437;-82
2022/12/03 08:35:11;;;;;;;56.10;30.70;;;;;;;;;;5043463;28;20422;-82
2022/12/03 08:37:37;;;;;;;57.90;31.52;;;;;;;;;;5051587;28;20833;-83
2022/12/03 08:40:18;;;;;;;54.90;32.20;;;;;;;;;;5043162;28;20421;-81
2022/12/03 08:42:44;;;;;;;51.50;29.50;;;;;;;;;;5048935;28;20423;-81
2022/12/03 08:48:32;;;;;;;54.15;31.38;;;;;;;;;;5047350;28;20902;-82
2022/12/03 08:51:00;;;;;;;57.03;30.33;;;;;;;;;;5045901;28;20420;-81
2022/12/03 08:53:57;;;;;;;57.08;30.35;;;;;;;;;;5049437;28;20780;-81
2022/12/03 08:56:26;;;;;;;58.75;31.30;;;;;;;;;;5046010;28;20530;-81
2022/12/03 08:58:53;;;;;;;58.45;31.13;;;;;;;;;;5050893;28;20429;-82
2022/12/03 09:01:33;;;;;;;50.80;29.48;;;;;;;;;;5051005;28;20926;-80
2022/12/03 09:04:19;;;;;;;55.80;29.33;;;;;;;;;;5050115;28;20420;-80
2022/12/03 09:06:45;;;;;;;54.25;31.27;;;;;;;;;;5043065;28;20412;-82
2022/12/03 09:09:12;;;;;;;54.22;29.73;;;;;;;;;;5050956;28;20435;-79
2022/12/03 09:11:42;;;;;;;55.92;29.45;;;;;;;;;;5049901;28;20434;-79
2022/12/03 09:14:09;;;;;;;54.97;30.63;;;;;;;;;;5048677;28;20416;-80
2022/12/03 09:16:36;;;;;;;54.85;30.73;;;;;;;;;;5047252;28;20456;-82
2022/12/03 09:19:02;;;;;;;52.25;29.05;;;;;;;;;;5051807;28;21151;-79
2022/12/03 09:21:31;;;;;;;57.30;30.33;;;;;;;;;;5047518;28;20486;-82
2022/12/03 09:23:57;;;;;;;53.37;29.50;;;;;;;;;;5049946;28;20490;-81
2022/12/03 09:26:23;;;;;;;50.50;29.45;;;;;;;;;;5046176;28;20426;-80
2022/12/03 09:28:51;;;;;;;54.38;29.90;;;;;;;;;;5052101;28;20417;-81
2022/12/03 09:31:18;;;;;;;56.95;29.58;;;;;;;;;;5047473;28;20434;-80
2022/12/03 09:33:44;;;;;;;54.33;29.05;;;;;;;;;;5048005;28;20415;-81
2022/12/03 09:36:11;;;;;;;53.55;29.30;;;;;;;;;;5052051;28;20424;-81
2022/12/03 09:38:37;;;;;;;53.13;29.58;;;;;;;;;;5048499;28;20438;-81
2022/12/03 09:41:04;;;;;;;56.10;30.20;;;;;;;;;;5049128;28;20417;-81
2022/12/03 09:43:32;;;;;;;52.35;29.42;;;;;;;;;;5047314;28;20440;-80
2022/12/03 09:46:00;;;;;;;50.33;29.00;;;;;;;;;;5047465;28;20946;-80
2022/12/03 09:48:26;;;;;;;49.20;28.90;;;;;;;;;;5048617;28;20492;-80
2022/12/03 09:50:53;;;;;;;53.60;29.80;;;;;;;;;;5044788;28;20925;-80
2022/12/03 09:53:21;;;;;;;50.90;27.37;;;;;;;;;;5047482;28;20419;-81
2022/12/03 09:55:50;;;;;;;55.27;29.80;;;;;;;;;;5045201;28;20419;-80
2022/12/03 09:58:18;;;;;;;51.63;29.40;;;;;;;;;;5047017;28;21347;-82
2022/12/03 10:00:46;;;;;;;49.92;27.70;;;;;;;;;;5045028;28;20416;-79
2022/12/03 10:03:15;;;;;;;54.17;30.13;;;;;;;;;;5049413;28;20429;-79
2022/12/03 10:05:42;;;;;;;55.42;29.70;;;;;;;;;;5048484;28;20409;-80
2022/12/03 10:08:10;;;;;;;50.10;28.70;;;;;;;;;;5046204;28;20847;-80
2022/12/03 10:10:36;;;;;;;49.88;29.15;;;;;;;;;;5045123;28;20427;-85
2022/12/03 10:13:03;;;;;;;52.17;27.70;;;;;;;;;;5054096;28;20439;-82
2022/12/03 10:15:30;;;;;;;49.77;28.63;;;;;;;;;;5049211;28;20431;-85
2022/12/03 10:17:59;;;;;;;52.40;28.38;;;;;;;;;;5051638;28;20430;-79
2022/12/03 10:20:26;;;;;;;52.63;29.37;;;;;;;;;;5051958;28;20512;-81
2022/12/03 10:22:53;;;;;;;54.37;30.20;;;;;;;;;;5049485;28;20431;-78
2022/12/03 10:25:20;;;;;;;52.35;29.00;;;;;;;;;;5049678;28;20434;-81
2022/12/03 10:27:55;;;;;;;49.28;28.10;;;;;;;;;;5047353;28;20407;-80
2022/12/03 10:30:25;;;;;;;48.63;28.33;;;;;;;;;;5049038;28;20423;-80
2022/12/03 10:32:52;;;;;;;47.95;27.45;;;;;;;;;;5048785;28;20433;-81
2022/12/03 10:35:19;;;;;;;50.33;29.05;;;;;;;;;;5048155;28;20432;-81
2022/12/03 10:38:04;;;;;;;52.67;28.30;;;;;;;;;;5045959;28;20442;-79
2022/12/03 10:40:32;;;;;;;50.53;28.30;;;;;;;;;;5046989;28;20424;-79
2022/12/03 10:43:16;;;;;;;49.67;28.27;;;;;;;;;;5051788;28;20426;-79
2022/12/03 10:45:42;;;;;;;51.60;26.95;;;;;;;;;;5049567;28;20417;-82
2022/12/03 10:48:13;;;;;;;50.00;27.95;;;;;;;;;;5052237;28;20444;-80
2022/12/03 10:50:47;;;;;;;49.63;27.15;;;;;;;;;;5048266;28;20419;-79
2022/12/03 10:53:14;;;;;;;47.80;27.52;;;;;;;;;;5049339;28;20583;-80
2022/12/03 10:55:42;;;;;;;48.20;26.15;;;;;;;;;;5051563;28;20440;-79
2022/12/03 10:58:15;;;;;;;47.58;27.10;;;;;;;;;;5047533;28;20429;-80
2022/12/03 11:00:41;;;;;;;48.83;28.20;;;;;;;;;;5049244;28;20437;-82
2022/12/03 11:03:16;;;;;;;52.90;28.23;;;;;;;;;;5051564;28;20430;-80
2022/12/03 11:05:42;;;;;;;47.53;26.23;;;;;;;;;;5049231;28;20430;-81
2022/12/03 11:08:15;;;;;;;46.85;27.70;;;;;;;;;;5049812;28;20432;-80
2022/12/03 11:10:43;;;;;;;52.75;29.50;;;;;;;;;;5047667;28;20475;-80
2022/12/03 11:13:28;;;;;;;47.10;26.67;;;;;;;;;;5048339;28;20425;-80
2022/12/03 11:15:55;;;;;;;51.00;28.10;;;;;;;;;;5049402;28;20427;-80
2022/12/03 11:18:40;;;;;;;47.93;27.37;;;;;;;;;;5050456;28;20432;-79
2022/12/03 11:21:07;;;;;;;47.55;27.15;;;;;;;;;;5051521;28;20410;-82
2022/12/03 11:23:52;;;;;;;50.77;27.17;;;;;;;;;;5047287;28;20437;-81
2022/12/03 11:26:40;;;;;;;52.38;28.85;;;;;;;;;;5047587;28;20417;-79
2022/12/03 11:29:13;;;;;;;49.95;26.90;;;;;;;;;;5048999;28;20422;-80
2022/12/03 11:31:41;;;;;;;48.38;26.90;;;;;;;;;;5047791;28;20426;-79
2022/12/03 11:34:28;;;;;;;46.83;27.02;;;;;;;;;;5046083;28;20946;-79
2022/12/03 11:37:13;;;;;;;47.50;27.25;;;;;;;;;;5047552;28;20424;-80
2022/12/03 11:39:58;;;;;;;46.22;26.63;;;;;;;;;;5050630;28;20419;-79
2022/12/03 11:42:29;;;;;;;50.28;27.40;;;;;;;;;;5047957;28;20429;-82
2022/12/03 11:45:12;;;;;;;47.78;27.27;;;;;;;;;;5047546;28;20425;-80
2022/12/03 11:47:41;;;;;;;45.33;26.83;;;;;;;;;;5046284;28;20433;-81
2022/12/03 11:50:19;;;;;;;45.38;27.65;;;;;;;;;;5050165;28;20421;-80
2022/12/03 11:52:46;;;;;;;48.25;28.02;;;;;;;;;;5053866;28;20425;-79
2022/12/03 11:55:17;;;;;;;48.38;27.75;;;;;;;;;;5053446;28;20793;-79
2022/12/03 11:57:44;;;;;;;46.10;28.48;;;;;;;;;;5052567;28;20436;-81
2022/12/03 12:00:19;;;;;;;47.25;27.50;;;;;;;;;;5046006;28;20417;-78
2022/12/03 12:02:50;;;;;;;53.03;27.95;;;;;;;;;;5049885;28;20928;-81
2022/12/03 12:05:20;;;;;;;49.60;28.27;;;;;;;;;;5051199;28;20801;-79
2022/12/03 12:07:47;;;;;;;48.43;28.20;;;;;;;;;;5051750;28;20538;-80
2022/12/03 12:10:15;;;;;;;45.33;27.23;;;;;;;;;;5049432;28;20432;-80
2022/12/03 12:12:46;;;;;;;48.97;28.58;;;;;;;;;;5047773;28;20440;-80
2022/12/03 12:15:32;;;;;;;48.05;28.27;;;;;;;;;;5049302;28;20422;-79
2022/12/03 12:18:21;;;;;;;47.05;27.42;;;;;;;;;;5045644;28;20429;-81
2022/12/03 12:20:48;;;;;;;46.53;27.25;;;;;;;;;;5046415;28;20425;-80
2022/12/03 12:23:21;;;;;;;46.95;28.17;;;;;;;;;;5050501;28;20449;-81
2022/12/03 12:26:07;;;;;;;53.83;28.73;;;;;;;;;;5004562;28;20448;-81
2022/12/03 12:28:33;;;;;;;46.58;26.13;;;;;;;;;;5049809;28;20428;-79
2022/12/03 12:31:00;;;;;;;48.53;27.40;;;;;;;;;;5048713;28;20433;-80
2022/12/03 12:33:29;;;;;;;50.13;29.25;;;;;;;;;;5051884;28;20914;-78
2022/12/03 12:35:55;;;;;;;45.45;27.05;;;;;;;;;;5047063;28;20417;-80
2022/12/03 12:38:23;;;;;;;50.55;27.35;;;;;;;;;;5049233;28;20926;-80
2022/12/03 12:40:51;;;;;;;46.90;26.60;;;;;;;;;;5044731;28;20410;-80
2022/12/03 12:43:23;;;;;;;46.85;26.30;;;;;;;;;;5048160;28;20446;-80
2022/12/03 12:45:50;;;;;;;51.67;27.10;;;;;;;;;;5045456;28;20546;-82
2022/12/03 12:48:20;;;;;;;47.13;27.13;;;;;;;;;;5047883;28;20435;-80
2022/12/03 12:50:50;;;;;;;52.08;27.73;;;;;;;;;;5046423;28;20431;-78
2022/12/03 12:53:20;;;;;;;47.55;27.17;;;;;;;;;;5045279;28;20441;-79
2022/12/03 12:55:47;;;;;;;43.65;26.10;;;;;;;;;;5047081;28;20456;-79
2022/12/03 12:58:15;;;;;;;45.25;27.55;;;;;;;;;;5043788;28;20427;-81
2022/12/03 13:00:41;;;;;;;50.40;27.00;;;;;;;;;;5042896;28;20852;-77
2022/12/03 13:03:10;;;;;;;48.17;28.63;;;;;;;;;;5043670;28;21058;-78
2022/12/03 13:05:38;;;;;;;52.15;27.23;;;;;;;;;;5045291;28;20424;-79
2022/12/03 13:08:16;;;;;;;49.38;27.60;;;;;;;;;;5046065;28;20471;-83
2022/12/03 13:10:43;;;;;;;49.33;27.03;;;;;;;;;;5044433;28;20428;-78
2022/12/03 13:13:14;;;;;;;43.50;26.65;;;;;;;;;;5041978;28;20424;-79
2022/12/03 13:15:43;;;;;;;44.60;26.98;;;;;;;;;;5043190;28;20429;-77
2022/12/03 13:18:19;;;;;;;50.00;27.23;;;;;;;;;;5043414;28;20444;-78
2022/12/03 13:20:45;;;;;;;41.40;25.92;;;;;;;;;;5043971;28;20409;-78
2022/12/03 13:23:23;;;;;;;47.38;27.08;;;;;;;;;;5048854;28;20425;-82
2022/12/03 13:25:50;;;;;;;47.15;26.67;;;;;;;;;;5046157;28;20427;-81
2022/12/03 13:28:17;;;;;;;45.13;26.95;;;;;;;;;;5047430;28;20441;-81
2022/12/03 13:30:44;;;;;;;45.28;25.33;;;;;;;;;;5052453;28;20425;-81
2022/12/03 13:33:13;;;;;;;45.65;25.98;;;;;;;;;;5052718;28;20899;-81
2022/12/03 13:35:42;;;;;;;46.13;24.48;;;;;;;;;;5048161;28;20435;-82
2022/12/03 13:38:12;;;;;;;41.00;25.07;;;;;;;;;;5044821;28;20519;-81
2022/12/03 13:40:40;;;;;;;43.20;25.50;;;;;;;;;;5050202;28;20413;-80
2022/12/03 13:43:09;;;;;;;38.20;23.07;;;;;;;;;;5049548;28;20451;-80
2022/12/03 13:45:37;;;;;;;38.15;21.88;;;;;;;;;;5048256;28;20413;-80
2022/12/03 13:48:13;;;;;;;36.53;21.98;;;;;;;;;;5049190;28;20425;-80
2022/12/03 13:50:40;;;;;;;36.80;22.63;;;;;;;;;;5051893;28;20433;-80
2022/12/03 13:53:13;;;;;;;36.58;21.27;;;;;;;;;;5048401;28;20432;-78
2022/12/03 13:55:45;;;;;;;34.05;20.33;;;;;;;;;;5048865;28;20430;-79
2022/12/03 13:58:12;;;;;;;36.15;20.70;;;;;;;;;;5049111;28;20434;-79
2022/12/03 14:00:38;;;;;;;37.97;21.42;;;;;;;;;;5050384;28;20442;-80
2022/12/03 14:03:05;;;;;;;36.13;20.83;;;;;;;;;;5049068;28;20432;-79
2022/12/03 14:05:31;;;;;;;34.93;19.53;;;;;;;;;;5049355;28;20433;-79
2022/12/03 14:08:00;;;;;;;35.38;21.35;;;;;;;;;;5047656;28;20415;-78
2022/12/03 14:10:27;;;;;;;37.47;21.33;;;;;;;;;;5040196;28;21013;-79
2022/12/03 14:12:55;;;;;;;37.35;22.00;;;;;;;;;;5047872;28;20812;-79
2022/12/03 14:15:21;;;;;;;132.45;77.10;;;;;;;;;;5047725;28;20440;-80
2022/12/03 14:17:48;;;;;;;37.10;21.50;;;;;;;;;;5049739;28;20431;-79
2022/12/03 14:20:15;;;;;;;49.78;30.55;;;;;;;;;;5047231;28;20422;-81
2022/12/03 14:22:41;;;;;;;36.22;21.20;;;;;;;;;;5049921;28;20502;-81
2022/12/03 14:25:08;;;;;;;48.30;28.45;;;;;;;;;;5045019;28;20421;-80
2022/12/03 14:27:34;;;;;;;35.67;20.90;;;;;;;;;;5050273;28;20496;-80
2022/12/03 14:30:02;;;;;;;39.97;22.23;;;;;;;;;;5041730;28;20488;-81
2022/12/03 14:32:29;;;;;;;36.40;20.80;;;;;;;;;;5051208;28;20791;-78
2022/12/03 14:34:56;;;;;;;34.75;20.83;;;;;;;;;;5045400;28;20418;-79
2022/12/03 14:37:23;;;;;;;38.35;21.55;;;;;;;;;;5049790;28;20418;-81
2022/12/03 14:39:50;;;;;;;41.70;23.35;;;;;;;;;;5047607;28;20925;-81
2022/12/03 14:42:17;;;;;;;36.88;22.30;;;;;;;;;;5045975;28;20422;-81